sensor_id;sensor_type;location;lat;lon;timestamp;temperature;humidity
5278;DHT22;2662;51.194;6.614;2022-11-15T00:00:37;10.50;99.90
5278;DHT22;2662;51.194;6.614;2022-11-15T00:03:03;10.40;99.90
5278;DHT22;2662;51.194;6.614;2022-11-15T00:05:34;10.50;99.90
5278;DHT22;2662;51.194;6.614;2022-11-15T00:08:01;10.50;99.90
5278;DHT22;2662;51.194;6.614;2022-11-15T00:10:27;10.50;99.90
5278;DHT22;2662;51.194;6.614;2022-11-15T00:12:54;10.60;99.90
5278;DHT22;2662;51.194;6.614;2022-11-15T00:15:21;10.60;99.90
5278;DHT22;2662;51.194;6.614;2022-11-15T00:17:49;10.70;99.90
5278;DHT22;2662;51.194;6.614;2022-11-15T00:20:17;10.70;99.90
5278;DHT22;2662;51.194;6.614;2022-11-15T00:22:43;10.80;99.90
5278;DHT22;2662;51.194;6.614;2022-11-15T00:25:10;10.80;99.90
5278;DHT22;2662;51.194;6.614;2022-11-15T00:27:37;10.80;99.90
5278;DHT22;2662;51.194;6.614;2022-11-15T00:30:04;10.90;99.90
5278;DHT22;2662;51.194;6.614;2022-11-15T00:32:31;11.00;99.90
5278;DHT22;2662;51.194;6.614;2022-11-15T00:34:59;11.00;99.90
5278;DHT22;2662;51.194;6.614;2022-11-15T00:37:26;11.00;99.90
5278;DHT22;2662;51.194;6.614;2022-11-15T00:39:53;11.10;99.90
5278;DHT22;2662;51.194;6.614;2022-11-15T00:42:19;11.20;99.90
5278;DHT22;2662;51.194;6.614;2022-11-15T00:44:46;11.20;99.90
5278;DHT22;2662;51.194;6.614;2022-11-15T00:47:13;11.30;99.90
5278;DHT22;2662;51.194;6.614;2022-11-15T00:49:39;11.30;99.90
5278;DHT22;2662;51.194;6.614;2022-11-15T00:52:08;11.40;99.90
5278;DHT22;2662;51.194;6.614;2022-11-15T00:54:35;11.40;99.90
5278;DHT22;2662;51.194;6.614;2022-11-15T00:57:01;11.40;99.90
5278;DHT22;2662;51.194;6.614;2022-11-15T00:59:31;11.50;99.90
5278;DHT22;2662;51.194;6.614;2022-11-15T01:01:58;11.50;99.90
5278;DHT22;2662;51.194;6.614;2022-11-15T01:04:25;11.40;99.90
5278;DHT22;2662;51.194;6.614;2022-11-15T01:06:51;11.50;99.90
5278;DHT22;2662;51.194;6.614;2022-11-15T01:09:19;11.50;99.90
5278;DHT22;2662;51.194;6.614;2022-11-15T01:11:46;11.50;99.90
5278;DHT22;2662;51.194;6.614;2022-11-15T01:14:13;11.60;99.90
5278;DHT22;2662;51.194;6.614;2022-11-15T01:16:40;11.60;99.90
5278;DHT22;2662;51.194;6.614;2022-11-15T01:19:07;11.70;99.90
5278;DHT22;2662;51.194;6.614;2022-11-15T01:21:33;11.70;99.90
5278;DHT22;2662;51.194;6.614;2022-11-15T01:24:00;11.80;99.90
5278;DHT22;2662;51.194;6.614;2022-11-15T01:26:28;11.80;99.90
5278;DHT22;2662;51.194;6.614;2022-11-15T01:28:55;11.80;99.90
5278;DHT22;2662;51.194;6.614;2022-11-15T01:31:22;11.80;99.90
5278;DHT22;2662;51.194;6.614;2022-11-15T01:33:48;11.80;99.90
5278;DHT22;2662;51.194;6.614;2022-11-15T01:36:16;11.80;99.90
5278;DHT22;2662;51.194;6.614;2022-11-15T01:38:44;11.80;99.90
5278;DHT22;2662;51.194;6.614;2022-11-15T01:41:15;11.80;99.90
5278;DHT22;2662;51.194;6.614;2022-11-15T01:43:46;11.80;99.90
5278;DHT22;2662;51.194;6.614;2022-11-15T01:46:24;11.80;99.90
5278;DHT22;2662;51.194;6.614;2022-11-15T01:48:53;11.80;99.90
5278;DHT22;2662;51.194;6.614;2022-11-15T01:51:23;11.80;99.90
5278;DHT22;2662;51.194;6.614;2022-11-15T01:53:55;11.80;99.90
5278;DHT22;2662;51.194;6.614;2022-11-15T01:56:25;11.80;99.90
5278;DHT22;2662;51.194;6.614;2022-11-15T01:58:57;11.90;99.90
5278;DHT22;2662;51.194;6.614;2022-11-15T02:01:25;12.00;99.90
5278;DHT22;2662;51.194;6.614;2022-11-15T02:03:56;12.00;99.90
5278;DHT22;2662;51.194;6.614;2022-11-15T02:06:24;12.10;99.90
5278;DHT22;2662;51.194;6.614;2022-11-15T02:08:51;12.10;99.90
5278;DHT22;2662;51.194;6.614;2022-11-15T02:11:18;12.10;99.90
5278;DHT22;2662;51.194;6.614;2022-11-15T02:13:45;12.10;99.90
5278;DHT22;2662;51.194;6.614;2022-11-15T02:16:20;12.10;99.90
5278;DHT22;2662;51.194;6.614;2022-11-15T02:18:55;12.10;99.90
5278;DHT22;2662;51.194;6.614;2022-11-15T02:21:28;12.10;99.90
5278;DHT22;2662;51.194;6.614;2022-11-15T02:27:35;12.10;99.90
5278;DHT22;2662;51.194;6.614;2022-11-15T02:30:24;12.10;99.90
5278;DHT22;2662;51.194;6.614;2022-11-15T02:32:56;12.00;99.90
5278;DHT22;2662;51.194;6.614;2022-11-15T02:35:29;12.00;99.90
5278;DHT22;2662;51.194;6.614;2022-11-15T02:38:04;12.10;99.90
5278;DHT22;2662;51.194;6.614;2022-11-15T02:40:38;12.20;99.90
5278;DHT22;2662;51.194;6.614;2022-11-15T02:43:10;12.20;99.90
5278;DHT22;2662;51.194;6.614;2022-11-15T02:46:00;12.30;99.90
5278;DHT22;2662;51.194;6.614;2022-11-15T02:48:29;12.40;99.90
5278;DHT22;2662;51.194;6.614;2022-11-15T02:50:58;12.40;99.90
5278;DHT22;2662;51.194;6.614;2022-11-15T02:53:25;12.40;99.90
5278;DHT22;2662;51.194;6.614;2022-11-15T02:55:53;12.50;99.90
5278;DHT22;2662;51.194;6.614;2022-11-15T02:58:51;12.60;99.90
5278;DHT22;2662;51.194;6.614;2022-11-15T03:01:32;12.60;99.90
5278;DHT22;2662;51.194;6.614;2022-11-15T03:04:13;12.70;99.90
5278;DHT22;2662;51.194;6.614;2022-11-15T03:06:43;12.70;99.90
5278;DHT22;2662;51.194;6.614;2022-11-15T03:09:21;12.80;99.90
5278;DHT22;2662;51.194;6.614;2022-11-15T03:11:55;12.80;99.90
5278;DHT22;2662;51.194;6.614;2022-11-15T03:14:25;12.80;99.90
5278;DHT22;2662;51.194;6.614;2022-11-15T03:16:59;12.90;99.90
5278;DHT22;2662;51.194;6.614;2022-11-15T03:19:33;13.00;99.90
5278;DHT22;2662;51.194;6.614;2022-11-15T03:22:04;13.00;99.90
5278;DHT22;2662;51.194;6.614;2022-11-15T03:24:34;13.00;99.90
5278;DHT22;2662;51.194;6.614;2022-11-15T03:27:04;13.00;99.90
5278;DHT22;2662;51.194;6.614;2022-11-15T03:29:35;13.00;99.90
5278;DHT22;2662;51.194;6.614;2022-11-15T03:32:06;13.00;99.90
5278;DHT22;2662;51.194;6.614;2022-11-15T03:34:37;13.00;99.90
5278;DHT22;2662;51.194;6.614;2022-11-15T03:37:06;13.00;99.90
5278;DHT22;2662;51.194;6.614;2022-11-15T03:39:33;13.00;99.90
5278;DHT22;2662;51.194;6.614;2022-11-15T03:42:08;13.00;99.90
5278;DHT22;2662;51.194;6.614;2022-11-15T03:44:44;13.00;99.90
5278;DHT22;2662;51.194;6.614;2022-11-15T03:47:18;13.10;99.90
5278;DHT22;2662;51.194;6.614;2022-11-15T03:49:50;13.10;99.90
5278;DHT22;2662;51.194;6.614;2022-11-15T03:52:18;13.10;99.90
5278;DHT22;2662;51.194;6.614;2022-11-15T03:54:52;13.10;99.90
5278;DHT22;2662;51.194;6.614;2022-11-15T03:57:19;13.10;99.90
5278;DHT22;2662;51.194;6.614;2022-11-15T03:59:46;13.10;99.90
5278;DHT22;2662;51.194;6.614;2022-11-15T04:02:15;13.10;99.90
5278;DHT22;2662;51.194;6.614;2022-11-15T04:04:41;13.10;99.90
5278;DHT22;2662;51.194;6.614;2022-11-15T04:07:08;13.10;99.90
5278;DHT22;2662;51.194;6.614;2022-11-15T04:09:35;13.20;99.90
5278;DHT22;2662;51.194;6.614;2022-11-15T04:12:23;13.20;99.90
5278;DHT22;2662;51.194;6.614;2022-11-15T04:14:56;13.20;99.90
5278;DHT22;2662;51.194;6.614;2022-11-15T04:17:35;13.30;99.90
5278;DHT22;2662;51.194;6.614;2022-11-15T04:20:03;13.30;99.90
5278;DHT22;2662;51.194;6.614;2022-11-15T04:22:47;13.20;99.90
5278;DHT22;2662;51.194;6.614;2022-11-15T04:25:32;13.30;99.90
5278;DHT22;2662;51.194;6.614;2022-11-15T04:27:58;13.30;99.90
5278;DHT22;2662;51.194;6.614;2022-11-15T04:30:25;13.40;99.90
5278;DHT22;2662;51.194;6.614;2022-11-15T04:32:53;13.30;99.90
5278;DHT22;2662;51.194;6.614;2022-11-15T04:35:20;13.30;99.90
5278;DHT22;2662;51.194;6.614;2022-11-15T04:37:46;13.40;99.90
5278;DHT22;2662;51.194;6.614;2022-11-15T04:40:12;13.40;99.90
5278;DHT22;2662;51.194;6.614;2022-11-15T04:42:40;13.40;99.90
5278;DHT22;2662;51.194;6.614;2022-11-15T04:45:08;13.40;99.90
5278;DHT22;2662;51.194;6.614;2022-11-15T04:47:35;13.40;99.90
5278;DHT22;2662;51.194;6.614;2022-11-15T04:50:04;13.40;99.90
5278;DHT22;2662;51.194;6.614;2022-11-15T04:52:30;13.40;99.90
5278;DHT22;2662;51.194;6.614;2022-11-15T04:54:57;13.40;99.90
5278;DHT22;2662;51.194;6.614;2022-11-15T04:57:24;13.50;99.90
5278;DHT22;2662;51.194;6.614;2022-11-15T04:59:51;13.50;99.90
5278;DHT22;2662;51.194;6.614;2022-11-15T05:02:17;13.50;99.90
5278;DHT22;2662;51.194;6.614;2022-11-15T05:04:44;13.50;99.90
5278;DHT22;2662;51.194;6.614;2022-11-15T05:07:11;13.50;99.90
5278;DHT22;2662;51.194;6.614;2022-11-15T05:09:38;13.50;99.90
5278;DHT22;2662;51.194;6.614;2022-11-15T05:12:05;13.50;99.90
5278;DHT22;2662;51.194;6.614;2022-11-15T05:14:31;13.40;99.90
5278;DHT22;2662;51.194;6.614;2022-11-15T05:16:58;13.50;99.90
5278;DHT22;2662;51.194;6.614;2022-11-15T05:19:25;13.50;99.90
5278;DHT22;2662;51.194;6.614;2022-11-15T05:21:51;13.40;99.90
5278;DHT22;2662;51.194;6.614;2022-11-15T05:24:20;13.40;99.90
5278;DHT22;2662;51.194;6.614;2022-11-15T05:26:46;13.40;99.90
5278;DHT22;2662;51.194;6.614;2022-11-15T05:29:13;13.40;99.90
5278;DHT22;2662;51.194;6.614;2022-11-15T05:31:40;13.40;99.90
5278;DHT22;2662;51.194;6.614;2022-11-15T05:34:08;13.40;99.90
5278;DHT22;2662;51.194;6.614;2022-11-15T05:36:36;13.40;99.90
5278;DHT22;2662;51.194;6.614;2022-11-15T05:39:05;13.30;99.90
5278;DHT22;2662;51.194;6.614;2022-11-15T05:41:35;13.30;99.90
5278;DHT22;2662;51.194;6.614;2022-11-15T05:44:06;13.30;99.90
5278;DHT22;2662;51.194;6.614;2022-11-15T05:46:34;13.30;99.90
5278;DHT22;2662;51.194;6.614;2022-11-15T05:49:02;13.20;99.90
5278;DHT22;2662;51.194;6.614;2022-11-15T05:51:29;13.30;99.90
5278;DHT22;2662;51.194;6.614;2022-11-15T05:53:57;13.30;99.90
5278;DHT22;2662;51.194;6.614;2022-11-15T05:56:25;13.30;99.90
5278;DHT22;2662;51.194;6.614;2022-11-15T05:58:54;13.30;99.90
5278;DHT22;2662;51.194;6.614;2022-11-15T06:01:22;13.30;99.90
5278;DHT22;2662;51.194;6.614;2022-11-15T06:03:48;13.30;99.90
5278;DHT22;2662;51.194;6.614;2022-11-15T06:06:15;13.30;99.90
5278;DHT22;2662;51.194;6.614;2022-11-15T06:08:42;13.30;99.90
5278;DHT22;2662;51.194;6.614;2022-11-15T06:11:08;13.30;99.90
5278;DHT22;2662;51.194;6.614;2022-11-15T06:13:35;13.30;99.90
5278;DHT22;2662;51.194;6.614;2022-11-15T06:16:04;13.40;99.90
5278;DHT22;2662;51.194;6.614;2022-11-15T06:18:32;13.40;99.90
5278;DHT22;2662;51.194;6.614;2022-11-15T06:21:00;13.40;99.90
5278;DHT22;2662;51.194;6.614;2022-11-15T06:23:27;13.30;99.90
5278;DHT22;2662;51.194;6.614;2022-11-15T06:25:57;13.30;99.90
5278;DHT22;2662;51.194;6.614;2022-11-15T06:28:24;13.30;99.90
5278;DHT22;2662;51.194;6.614;2022-11-15T06:30:51;13.30;99.90
5278;DHT22;2662;51.194;6.614;2022-11-15T06:33:19;13.30;99.90
5278;DHT22;2662;51.194;6.614;2022-11-15T06:35:46;13.30;99.90
5278;DHT22;2662;51.194;6.614;2022-11-15T06:38:12;13.20;99.90
5278;DHT22;2662;51.194;6.614;2022-11-15T06:40:39;13.20;99.90
5278;DHT22;2662;51.194;6.614;2022-11-15T06:43:06;13.20;99.90
5278;DHT22;2662;51.194;6.614;2022-11-15T06:45:33;13.20;99.90
5278;DHT22;2662;51.194;6.614;2022-11-15T06:48:00;13.30;99.90
5278;DHT22;2662;51.194;6.614;2022-11-15T06:50:28;13.20;99.90
5278;DHT22;2662;51.194;6.614;2022-11-15T06:52:55;13.20;99.90
5278;DHT22;2662;51.194;6.614;2022-11-15T06:55:26;13.30;99.90
5278;DHT22;2662;51.194;6.614;2022-11-15T06:57:53;13.30;99.90
5278;DHT22;2662;51.194;6.614;2022-11-15T07:00:20;13.30;99.90
5278;DHT22;2662;51.194;6.614;2022-11-15T07:02:48;13.30;99.90
5278;DHT22;2662;51.194;6.614;2022-11-15T07:05:15;13.30;99.90
5278;DHT22;2662;51.194;6.614;2022-11-15T07:07:45;13.40;99.90
5278;DHT22;2662;51.194;6.614;2022-11-15T07:10:17;13.50;99.90
5278;DHT22;2662;51.194;6.614;2022-11-15T07:12:46;13.50;99.90
5278;DHT22;2662;51.194;6.614;2022-11-15T07:15:13;13.50;99.90
5278;DHT22;2662;51.194;6.614;2022-11-15T07:17:40;13.50;99.90
5278;DHT22;2662;51.194;6.614;2022-11-15T07:20:08;13.60;99.90
5278;DHT22;2662;51.194;6.614;2022-11-15T07:22:34;13.60;99.90
5278;DHT22;2662;51.194;6.614;2022-11-15T07:25:03;13.70;99.90
5278;DHT22;2662;51.194;6.614;2022-11-15T07:27:30;13.60;99.90
5278;DHT22;2662;51.194;6.614;2022-11-15T07:29:56;13.60;99.90
5278;DHT22;2662;51.194;6.614;2022-11-15T07:32:23;13.50;99.90
5278;DHT22;2662;51.194;6.614;2022-11-15T07:34:50;13.60;99.90
5278;DHT22;2662;51.194;6.614;2022-11-15T07:37:17;13.60;99.90
5278;DHT22;2662;51.194;6.614;2022-11-15T07:39:44;13.60;99.90
5278;DHT22;2662;51.194;6.614;2022-11-15T07:42:12;13.50;99.90
5278;DHT22;2662;51.194;6.614;2022-11-15T07:44:56;13.50;99.90
5278;DHT22;2662;51.194;6.614;2022-11-15T07:47:23;13.50;99.90
5278;DHT22;2662;51.194;6.614;2022-11-15T07:49:50;13.50;99.90
5278;DHT22;2662;51.194;6.614;2022-11-15T07:52:17;13.60;99.90
5278;DHT22;2662;51.194;6.614;2022-11-15T07:54:44;13.60;99.90
5278;DHT22;2662;51.194;6.614;2022-11-15T07:57:12;13.60;99.90
5278;DHT22;2662;51.194;6.614;2022-11-15T07:59:38;13.60;99.90
5278;DHT22;2662;51.194;6.614;2022-11-15T08:02:05;13.60;99.90
5278;DHT22;2662;51.194;6.614;2022-11-15T08:04:32;13.60;99.90
5278;DHT22;2662;51.194;6.614;2022-11-15T08:06:58;13.70;99.90
5278;DHT22;2662;51.194;6.614;2022-11-15T08:09:25;13.80;99.90
5278;DHT22;2662;51.194;6.614;2022-11-15T08:11:52;13.90;99.90
5278;DHT22;2662;51.194;6.614;2022-11-15T08:14:20;14.00;99.90
5278;DHT22;2662;51.194;6.614;2022-11-15T08:16:47;14.10;99.90
5278;DHT22;2662;51.194;6.614;2022-11-15T08:19:14;14.20;99.90
5278;DHT22;2662;51.194;6.614;2022-11-15T08:21:41;14.20;99.90
5278;DHT22;2662;51.194;6.614;2022-11-15T08:24:09;14.30;99.90
5278;DHT22;2662;51.194;6.614;2022-11-15T08:26:36;14.30;99.90
5278;DHT22;2662;51.194;6.614;2022-11-15T08:29:03;14.30;99.90
5278;DHT22;2662;51.194;6.614;2022-11-15T08:31:31;14.30;99.90
5278;DHT22;2662;51.194;6.614;2022-11-15T08:33:58;14.40;99.90
5278;DHT22;2662;51.194;6.614;2022-11-15T08:36:24;14.70;99.90
5278;DHT22;2662;51.194;6.614;2022-11-15T08:38:51;15.30;99.90
5278;DHT22;2662;51.194;6.614;2022-11-15T08:41:24;15.90;99.90
5278;DHT22;2662;51.194;6.614;2022-11-15T08:43:53;16.60;99.90
5278;DHT22;2662;51.194;6.614;2022-11-15T08:46:19;17.30;99.90
5278;DHT22;2662;51.194;6.614;2022-11-15T08:48:48;17.60;99.90
5278;DHT22;2662;51.194;6.614;2022-11-15T08:51:14;17.70;99.90
5278;DHT22;2662;51.194;6.614;2022-11-15T08:53:41;17.70;99.90
5278;DHT22;2662;51.194;6.614;2022-11-15T08:56:09;17.40;99.90
5278;DHT22;2662;51.194;6.614;2022-11-15T08:58:36;17.40;99.90
5278;DHT22;2662;51.194;6.614;2022-11-15T09:01:03;17.40;99.90
5278;DHT22;2662;51.194;6.614;2022-11-15T09:03:31;17.50;99.90
5278;DHT22;2662;51.194;6.614;2022-11-15T09:06:00;17.50;99.90
5278;DHT22;2662;51.194;6.614;2022-11-15T09:08:30;17.70;99.90
5278;DHT22;2662;51.194;6.614;2022-11-15T09:10:56;17.50;99.90
5278;DHT22;2662;51.194;6.614;2022-11-15T09:13:23;17.50;99.90
5278;DHT22;2662;51.194;6.614;2022-11-15T09:15:50;17.60;99.90
5278;DHT22;2662;51.194;6.614;2022-11-15T09:18:17;17.70;99.90
5278;DHT22;2662;51.194;6.614;2022-11-15T09:20:43;17.70;99.90
5278;DHT22;2662;51.194;6.614;2022-11-15T09:23:11;17.90;99.90
5278;DHT22;2662;51.194;6.614;2022-11-15T09:25:38;18.00;99.90
5278;DHT22;2662;51.194;6.614;2022-11-15T09:28:06;17.80;99.90
5278;DHT22;2662;51.194;6.614;2022-11-15T09:30:32;17.70;99.90
5278;DHT22;2662;51.194;6.614;2022-11-15T09:33:06;17.60;99.90
5278;DHT22;2662;51.194;6.614;2022-11-15T09:35:33;17.70;99.90
5278;DHT22;2662;51.194;6.614;2022-11-15T09:38:00;17.80;99.90
5278;DHT22;2662;51.194;6.614;2022-11-15T09:40:30;17.80;99.90
5278;DHT22;2662;51.194;6.614;2022-11-15T09:43:15;17.70;99.90
5278;DHT22;2662;51.194;6.614;2022-11-15T09:45:52;17.50;99.90
5278;DHT22;2662;51.194;6.614;2022-11-15T09:48:34;17.30;99.90
5278;DHT22;2662;51.194;6.614;2022-11-15T09:51:06;17.30;99.90
5278;DHT22;2662;51.194;6.614;2022-11-15T09:53:39;17.30;99.90
5278;DHT22;2662;51.194;6.614;2022-11-15T09:56:14;17.40;99.90
5278;DHT22;2662;51.194;6.614;2022-11-15T09:58:48;17.40;99.90
5278;DHT22;2662;51.194;6.614;2022-11-15T10:01:23;17.30;99.90
5278;DHT22;2662;51.194;6.614;2022-11-15T10:03:56;17.40;99.90
5278;DHT22;2662;51.194;6.614;2022-11-15T10:06:26;17.60;99.90
5278;DHT22;2662;51.194;6.614;2022-11-15T10:09:00;17.50;99.90
5278;DHT22;2662;51.194;6.614;2022-11-15T10:11:31;17.30;99.90
5278;DHT22;2662;51.194;6.614;2022-11-15T10:14:01;17.10;99.90
5278;DHT22;2662;51.194;6.614;2022-11-15T10:19:26;16.70;99.90
5278;DHT22;2662;51.194;6.614;2022-11-15T10:22:01;16.50;99.90
5278;DHT22;2662;51.194;6.614;2022-11-15T10:24:35;16.50;99.90
5278;DHT22;2662;51.194;6.614;2022-11-15T10:27:09;16.30;99.90
5278;DHT22;2662;51.194;6.614;2022-11-15T10:29:42;16.20;99.90
5278;DHT22;2662;51.194;6.614;2022-11-15T10:32:10;16.00;99.90
5278;DHT22;2662;51.194;6.614;2022-11-15T10:34:37;15.90;99.90
5278;DHT22;2662;51.194;6.614;2022-11-15T10:37:04;15.90;99.90
5278;DHT22;2662;51.194;6.614;2022-11-15T10:39:31;15.60;99.90
5278;DHT22;2662;51.194;6.614;2022-11-15T10:42:16;15.60;99.90
5278;DHT22;2662;51.194;6.614;2022-11-15T10:44:44;15.50;99.90
5278;DHT22;2662;51.194;6.614;2022-11-15T10:47:26;15.30;99.90
5278;DHT22;2662;51.194;6.614;2022-11-15T10:49:59;15.30;99.90
5278;DHT22;2662;51.194;6.614;2022-11-15T10:52:28;15.30;99.90
5278;DHT22;2662;51.194;6.614;2022-11-15T10:54:57;15.30;99.90
5278;DHT22;2662;51.194;6.614;2022-11-15T10:57:29;15.30;99.90
5278;DHT22;2662;51.194;6.614;2022-11-15T10:59:59;15.30;99.90
5278;DHT22;2662;51.194;6.614;2022-11-15T11:02:32;15.40;99.90
5278;DHT22;2662;51.194;6.614;2022-11-15T11:05:00;15.50;99.90
5278;DHT22;2662;51.194;6.614;2022-11-15T11:07:28;15.50;99.90
5278;DHT22;2662;51.194;6.614;2022-11-15T11:10:02;15.50;99.90
5278;DHT22;2662;51.194;6.614;2022-11-15T11:12:32;15.70;99.90
5278;DHT22;2662;51.194;6.614;2022-11-15T11:15:01;15.70;99.90
5278;DHT22;2662;51.194;6.614;2022-11-15T11:17:49;15.70;99.90
5278;DHT22;2662;51.194;6.614;2022-11-15T11:20:22;15.70;99.90
5278;DHT22;2662;51.194;6.614;2022-11-15T11:23:02;15.70;99.90
5278;DHT22;2662;51.194;6.614;2022-11-15T11:25:34;15.80;99.90
5278;DHT22;2662;51.194;6.614;2022-11-15T11:28:22;15.80;99.90
5278;DHT22;2662;51.194;6.614;2022-11-15T11:31:00;15.90;99.90
5278;DHT22;2662;51.194;6.614;2022-11-15T11:33:31;15.80;99.90
5278;DHT22;2662;51.194;6.614;2022-11-15T11:36:06;15.80;99.90
5278;DHT22;2662;51.194;6.614;2022-11-15T11:38:50;15.70;99.90
5278;DHT22;2662;51.194;6.614;2022-11-15T11:44:45;15.50;99.90
5278;DHT22;2662;51.194;6.614;2022-11-15T11:47:18;15.50;99.90
5278;DHT22;2662;51.194;6.614;2022-11-15T11:49:51;15.60;99.90
5278;DHT22;2662;51.194;6.614;2022-11-15T11:52:23;15.80;99.90
5278;DHT22;2662;51.194;6.614;2022-11-15T11:55:02;15.90;99.90
5278;DHT22;2662;51.194;6.614;2022-11-15T11:57:35;15.90;99.90
5278;DHT22;2662;51.194;6.614;2022-11-15T12:00:15;16.00;99.90
5278;DHT22;2662;51.194;6.614;2022-11-15T12:02:48;16.00;99.90
5278;DHT22;2662;51.194;6.614;2022-11-15T12:05:23;16.10;99.90
5278;DHT22;2662;51.194;6.614;2022-11-15T12:07:56;16.20;99.90
5278;DHT22;2662;51.194;6.614;2022-11-15T12:10:30;16.30;99.90
5278;DHT22;2662;51.194;6.614;2022-11-15T12:13:02;16.20;99.90
5278;DHT22;2662;51.194;6.614;2022-11-15T12:15:35;16.20;99.90
5278;DHT22;2662;51.194;6.614;2022-11-15T12:18:03;16.10;99.90
5278;DHT22;2662;51.194;6.614;2022-11-15T12:20:35;16.10;99.90
5278;DHT22;2662;51.194;6.614;2022-11-15T12:23:06;16.10;99.90
5278;DHT22;2662;51.194;6.614;2022-11-15T12:25:41;16.10;99.90
5278;DHT22;2662;51.194;6.614;2022-11-15T12:28:16;16.00;99.90
5278;DHT22;2662;51.194;6.614;2022-11-15T12:30:51;16.00;99.90
5278;DHT22;2662;51.194;6.614;2022-11-15T12:33:34;16.10;99.90
5278;DHT22;2662;51.194;6.614;2022-11-15T12:36:03;15.90;99.90
5278;DHT22;2662;51.194;6.614;2022-11-15T12:38:51;15.80;99.90
5278;DHT22;2662;51.194;6.614;2022-11-15T12:41:19;15.70;99.90
5278;DHT22;2662;51.194;6.614;2022-11-15T12:43:47;15.70;99.90
5278;DHT22;2662;51.194;6.614;2022-11-15T12:46:22;15.70;99.90
5278;DHT22;2662;51.194;6.614;2022-11-15T12:48:54;15.80;99.90
5278;DHT22;2662;51.194;6.614;2022-11-15T12:54:52;15.90;99.90
5278;DHT22;2662;51.194;6.614;2022-11-15T12:57:39;16.00;99.90
5278;DHT22;2662;51.194;6.614;2022-11-15T13:00:36;16.00;99.90
5278;DHT22;2662;51.194;6.614;2022-11-15T13:03:18;16.00;99.90
5278;DHT22;2662;51.194;6.614;2022-11-15T13:06:07;16.00;99.90
5278;DHT22;2662;51.194;6.614;2022-11-15T13:08:49;16.00;99.90
5278;DHT22;2662;51.194;6.614;2022-11-15T13:11:44;15.90;99.90
5278;DHT22;2662;51.194;6.614;2022-11-15T13:14:49;15.90;99.90
5278;DHT22;2662;51.194;6.614;2022-11-15T13:17:35;15.90;99.90
5278;DHT22;2662;51.194;6.614;2022-11-15T13:20:26;15.90;99.90
5278;DHT22;2662;51.194;6.614;2022-11-15T13:23:01;15.80;99.90
5278;DHT22;2662;51.194;6.614;2022-11-15T13:25:46;15.80;99.90
5278;DHT22;2662;51.194;6.614;2022-11-15T13:28:24;15.90;99.90
5278;DHT22;2662;51.194;6.614;2022-11-15T13:30:55;15.90;99.90
5278;DHT22;2662;51.194;6.614;2022-11-15T13:33:23;15.90;99.90
5278;DHT22;2662;51.194;6.614;2022-11-15T13:35:54;15.80;99.90
5278;DHT22;2662;51.194;6.614;2022-11-15T13:38:27;15.80;99.90
5278;DHT22;2662;51.194;6.614;2022-11-15T13:40:54;15.80;99.90
5278;DHT22;2662;51.194;6.614;2022-11-15T13:43:31;15.80;99.90
5278;DHT22;2662;51.194;6.614;2022-11-15T13:46:10;15.80;99.90
5278;DHT22;2662;51.194;6.614;2022-11-15T13:48:38;15.80;99.90
5278;DHT22;2662;51.194;6.614;2022-11-15T13:51:13;15.80;99.90
5278;DHT22;2662;51.194;6.614;2022-11-15T13:53:44;15.80;99.90
5278;DHT22;2662;51.194;6.614;2022-11-15T13:56:13;15.80;99.90
5278;DHT22;2662;51.194;6.614;2022-11-15T13:58:41;15.80;99.90
5278;DHT22;2662;51.194;6.614;2022-11-15T14:01:15;15.80;99.90
5278;DHT22;2662;51.194;6.614;2022-11-15T14:03:51;15.80;99.90
5278;DHT22;2662;51.194;6.614;2022-11-15T14:06:22;15.80;99.90
5278;DHT22;2662;51.194;6.614;2022-11-15T14:09:03;15.80;99.90
5278;DHT22;2662;51.194;6.614;2022-11-15T14:11:30;15.80;99.90
5278;DHT22;2662;51.194;6.614;2022-11-15T14:14:10;15.70;99.90
5278;DHT22;2662;51.194;6.614;2022-11-15T14:16:39;15.70;99.90
5278;DHT22;2662;51.194;6.614;2022-11-15T14:19:09;15.70;99.90
5278;DHT22;2662;51.194;6.614;2022-11-15T14:21:37;15.70;99.90
5278;DHT22;2662;51.194;6.614;2022-11-15T14:24:30;15.60;99.90
5278;DHT22;2662;51.194;6.614;2022-11-15T14:27:19;15.60;99.90
5278;DHT22;2662;51.194;6.614;2022-11-15T14:29:47;15.60;99.90
5278;DHT22;2662;51.194;6.614;2022-11-15T14:32:15;15.60;99.90
5278;DHT22;2662;51.194;6.614;2022-11-15T14:34:43;15.60;99.90
5278;DHT22;2662;51.194;6.614;2022-11-15T14:37:20;15.50;99.90
5278;DHT22;2662;51.194;6.614;2022-11-15T14:39:47;15.50;99.90
5278;DHT22;2662;51.194;6.614;2022-11-15T14:42:14;15.40;99.90
5278;DHT22;2662;51.194;6.614;2022-11-15T14:44:41;15.40;99.90
5278;DHT22;2662;51.194;6.614;2022-11-15T14:47:08;15.30;99.90
5278;DHT22;2662;51.194;6.614;2022-11-15T14:49:34;15.30;99.90
5278;DHT22;2662;51.194;6.614;2022-11-15T14:52:01;15.30;99.90
5278;DHT22;2662;51.194;6.614;2022-11-15T14:54:29;15.40;99.90
5278;DHT22;2662;51.194;6.614;2022-11-15T14:56:56;15.40;99.90
5278;DHT22;2662;51.194;6.614;2022-11-15T14:59:22;15.40;99.90
5278;DHT22;2662;51.194;6.614;2022-11-15T15:01:49;15.40;99.90
5278;DHT22;2662;51.194;6.614;2022-11-15T15:04:16;15.40;99.90
5278;DHT22;2662;51.194;6.614;2022-11-15T15:06:42;15.40;99.90
5278;DHT22;2662;51.194;6.614;2022-11-15T15:09:09;15.40;99.90
5278;DHT22;2662;51.194;6.614;2022-11-15T15:11:37;15.40;99.90
5278;DHT22;2662;51.194;6.614;2022-11-15T15:14:04;15.40;99.90
5278;DHT22;2662;51.194;6.614;2022-11-15T15:16:30;15.30;99.90
5278;DHT22;2662;51.194;6.614;2022-11-15T15:18:57;15.30;99.90
5278;DHT22;2662;51.194;6.614;2022-11-15T15:21:25;15.20;99.90
5278;DHT22;2662;51.194;6.614;2022-11-15T15:23:53;15.20;99.90
5278;DHT22;2662;51.194;6.614;2022-11-15T15:26:20;15.30;99.90
5278;DHT22;2662;51.194;6.614;2022-11-15T15:28:49;15.30;99.90
5278;DHT22;2662;51.194;6.614;2022-11-15T15:31:17;15.30;99.90
5278;DHT22;2662;51.194;6.614;2022-11-15T15:33:44;15.20;99.90
5278;DHT22;2662;51.194;6.614;2022-11-15T15:36:11;15.20;99.90
5278;DHT22;2662;51.194;6.614;2022-11-15T15:38:38;15.20;99.90
5278;DHT22;2662;51.194;6.614;2022-11-15T15:41:09;15.20;99.90
5278;DHT22;2662;51.194;6.614;2022-11-15T15:43:36;15.10;99.90
5278;DHT22;2662;51.194;6.614;2022-11-15T15:46:05;15.10;99.90
5278;DHT22;2662;51.194;6.614;2022-11-15T15:48:34;15.10;99.90
5278;DHT22;2662;51.194;6.614;2022-11-15T15:51:02;15.10;99.90
5278;DHT22;2662;51.194;6.614;2022-11-15T15:53:29;15.00;99.90
5278;DHT22;2662;51.194;6.614;2022-11-15T15:55:56;15.00;99.90
5278;DHT22;2662;51.194;6.614;2022-11-15T15:58:23;15.00;99.90
5278;DHT22;2662;51.194;6.614;2022-11-15T16:00:50;15.00;99.90
5278;DHT22;2662;51.194;6.614;2022-11-15T16:03:18;15.00;99.90
5278;DHT22;2662;51.194;6.614;2022-11-15T16:05:45;15.00;99.90
5278;DHT22;2662;51.194;6.614;2022-11-15T16:08:18;15.00;99.90
5278;DHT22;2662;51.194;6.614;2022-11-15T16:10:45;15.00;99.90
5278;DHT22;2662;51.194;6.614;2022-11-15T16:13:12;15.00;99.90
5278;DHT22;2662;51.194;6.614;2022-11-15T16:15:39;15.00;99.90
5278;DHT22;2662;51.194;6.614;2022-11-15T16:18:06;14.90;99.90
5278;DHT22;2662;51.194;6.614;2022-11-15T16:20:37;15.00;99.90
5278;DHT22;2662;51.194;6.614;2022-11-15T16:23:07;15.00;99.90
5278;DHT22;2662;51.194;6.614;2022-11-15T16:25:38;14.90;99.90
5278;DHT22;2662;51.194;6.614;2022-11-15T16:28:14;15.00;99.90
5278;DHT22;2662;51.194;6.614;2022-11-15T16:30:42;14.90;99.90
5278;DHT22;2662;51.194;6.614;2022-11-15T16:33:09;14.90;99.90
5278;DHT22;2662;51.194;6.614;2022-11-15T16:35:37;14.90;99.90